Time;durP1;ratioP1;P1;durP2;ratioP2;P2;SDS_P1;SDS_P2;PMS_P1;PMS_P2;Temp;Humidity;BMP_temperature;BMP_pressure;BME280_temperature;BME280_humidity;BME280_pressure;Samples;Min_cycle;Max_cycle;Signal;HPM_P1;HPM_P2
2021/06/02 00:00:06;;;;;;;2.45;1.13;;;19.50;88.90;;;;;;5107176;27;20077;-79
2021/06/02 00:02:45;;;;;;;2.05;1.27;;;19.50;89.30;;;;;;5097344;27;20040;-78
2021/06/02 00:05:19;;;;;;;2.08;1.20;;;19.40;89.80;;;;;;5102724;27;20039;-78
2021/06/02 00:07:50;;;;;;;3.08;1.08;;;19.40;90.10;;;;;;5096963;28;20138;-79
2021/06/02 00:10:21;;;;;;;2.05;1.00;;;19.30;90.30;;;;;;5102502;28;20422;-79
2021/06/02 00:12:53;;;;;;;1.42;0.88;;;19.40;90.20;;;;;;5098682;27;20385;-79
2021/06/02 00:15:23;;;;;;;1.48;1.10;;;19.50;89.90;;;;;;5105162;27;20389;-78
2021/06/02 00:17:53;;;;;;;1.27;1.00;;;19.50;89.70;;;;;;5101889;27;20035;-79
2021/06/02 00:20:25;;;;;;;1.13;1.00;;;19.40;89.80;;;;;;5104637;27;20600;-79
2021/06/02 00:22:55;;;;;;;1.50;0.93;;;19.30;89.70;;;;;;5098726;27;20437;-78
2021/06/02 00:25:25;;;;;;;0.93;0.80;;;19.10;90.20;;;;;;5098769;28;20036;-79
2021/06/02 00:27:56;;;;;;;1.70;0.80;;;19.10;90.50;;;;;;5099946;28;20035;-79
2021/06/02 00:30:26;;;;;;;3.25;1.23;;;19.10;90.40;;;;;;5105289;27;20035;-79
2021/06/02 00:32:58;;;;;;;3.58;0.98;;;18.90;91.80;;;;;;5094773;27;20047;-78
2021/06/02 00:35:30;;;;;;;2.15;1.27;;;18.60;93.20;;;;;;5098384;27;20050;-79
2021/06/02 00:38:00;;;;;;;2.15;1.00;;;18.30;94.90;;;;;;5101278;27;20035;-79
2021/06/02 00:40:37;;;;;;;1.95;0.90;;;18.50;94.80;;;;;;5098398;28;20052;-78
2021/06/02 00:43:07;;;;;;;;;;;18.70;94.00;;;;;;5098930;27;20027;-79
2021/06/02 00:45:37;;;;;;;4.40;1.73;;;18.80;93.00;;;;;;5101828;27;19923;-79
2021/06/02 00:48:07;;;;;;;1.90;1.20;;;18.70;92.50;;;;;;5083289;28;20505;-79
2021/06/02 00:50:42;;;;;;;2.85;1.35;;;18.60;92.90;;;;;;5085603;27;20052;-79
2021/06/02 00:53:12;;;;;;;2.38;1.52;;;18.70;92.90;;;;;;5101974;27;20063;-79
2021/06/02 00:55:42;;;;;;;1.75;1.10;;;18.70;92.50;;;;;;5098947;27;20048;-78
2021/06/02 00:58:27;;;;;;;2.38;1.30;;;18.60;93.00;;;;;;5100263;27;20047;-79
2021/06/02 01:00:58;;;;;;;3.85;1.30;;;18.40;93.70;;;;;;5094180;27;20563;-79
2021/06/02 01:03:29;;;;;;;1.77;1.23;;;18.50;93.30;;;;;;5083118;28;20051;-78
2021/06/02 01:06:02;;;;;;;1.50;1.02;;;18.40;93.40;;;;;;5105902;27;20071;-78
2021/06/02 01:08:35;;;;;;;2.63;1.15;;;18.50;93.00;;;;;;5099924;28;20043;-78
2021/06/02 01:11:05;;;;;;;1.63;1.00;;;18.40;92.90;;;;;;5099174;27;20054;-78
2021/06/02 01:13:36;;;;;;;1.95;1.10;;;18.40;92.80;;;;;;5099623;27;20476;-78
2021/06/02 01:16:07;;;;;;;2.72;0.82;;;18.40;92.60;;;;;;5099193;27;20044;-78
2021/06/02 01:18:37;;;;;;;4.82;1.40;;;18.30;92.80;;;;;;5099882;28;20060;-78
2021/06/02 01:21:16;;;;;;;1.45;1.27;;;18.30;93.00;;;;;;5100752;28;20035;-78
2021/06/02 01:23:49;;;;;;;3.10;1.17;;;18.30;93.10;;;;;;5100015;27;20081;-78
2021/06/02 01:26:19;;;;;;;3.20;1.00;;;18.40;92.80;;;;;;5100191;27;20116;-78
2021/06/02 01:28:50;;;;;;;1.42;1.10;;;18.40;93.00;;;;;;5098839;28;20078;-78
2021/06/02 01:31:44;;;;;;;3.60;1.40;;;18.30;93.10;;;;;;5098826;27;20093;-78
2021/06/02 01:34:27;;;;;;;1.98;1.20;;;18.30;93.30;;;;;;5099641;27;20032;-78
2021/06/02 01:37:11;;;;;;;2.50;1.30;;;18.20;93.50;;;;;;5085380;27;20047;-79
2021/06/02 01:40:01;;;;;;;3.05;1.52;;;17.90;94.70;;;;;;5096212;27;20493;-78
2021/06/02 01:42:42;;;;;;;2.60;1.38;;;17.90;95.20;;;;;;5099205;28;20043;-79
2021/06/02 01:45:29;;;;;;;2.42;1.30;;;18.10;94.90;;;;;;5096064;27;20092;-79
2021/06/02 01:48:30;;;;;;;1.50;1.20;;;17.90;95.10;;;;;;5103429;27;20497;-78
2021/06/02 01:51:40;;;;;;;3.53;1.23;;;17.80;95.80;;;;;;5099960;27;20509;-78
2021/06/02 01:54:49;;;;;;;2.42;1.13;;;17.90;95.30;;;;;;5062055;27;20060;-79
2021/06/02 01:57:37;;;;;;;1.92;1.08;;;17.90;95.40;;;;;;5096679;27;20048;-79
2021/06/02 02:00:24;;;;;;;2.05;1.27;;;17.80;95.30;;;;;;5095961;27;20055;-79
2021/06/02 02:03:15;;;;;;;3.03;1.00;;;17.80;95.20;;;;;;5096077;27;20401;-78
2021/06/02 02:06:14;;;;;;;3.05;1.10;;;17.90;95.00;;;;;;5087594;28;20121;-78
2021/06/02 02:08:49;;;;;;;1.50;0.98;;;17.90;94.60;;;;;;5077521;27;20070;-79
2021/06/02 02:11:34;;;;;;;2.28;1.10;;;17.80;94.60;;;;;;5100613;27;20045;-78
2021/06/02 02:14:31;;;;;;;3.72;1.13;;;17.70;94.70;;;;;;5097542;27;20047;-78
2021/06/02 02:17:46;;;;;;;1.73;1.45;;;17.60;95.10;;;;;;5098781;27;20123;-79
2021/06/02 02:20:22;;;;;;;1.25;1.00;;;17.80;94.50;;;;;;5066797;28;20326;-79
2021/06/02 02:23:02;;;;;;;1.33;1.15;;;17.90;94.50;;;;;;5102042;27;20074;-79
2021/06/02 02:25:45;;;;;;;1.75;1.50;;;17.80;94.30;;;;;;5117007;27;20485;-78
2021/06/02 02:28:29;;;;;;;2.78;1.05;;;17.60;94.80;;;;;;5098913;27;20143;-78
2021/06/02 02:31:06;;;;;;;1.40;1.20;;;17.40;95.30;;;;;;5109735;27;20035;-79
2021/06/02 02:33:48;;;;;;;2.75;1.13;;;17.50;95.70;;;;;;5096449;27;20126;-78
2021/06/02 02:36:29;;;;;;;1.52;1.23;;;17.60;95.70;;;;;;5095849;27;20104;-79
2021/06/02 02:39:04;;;;;;;2.80;1.20;;;17.70;95.30;;;;;;5099432;27;20039;-79
2021/06/02 02:41:46;;;;;;;4.93;1.85;;;17.80;95.00;;;;;;5114243;27;20126;-79
2021/06/02 02:44:44;;;;;;;3.05;1.13;;;17.80;95.10;;;;;;5107019;27;20044;-79
2021/06/02 02:47:22;;;;;;;1.27;1.10;;;17.70;95.20;;;;;;5094928;27;20501;-79
2021/06/02 02:50:02;;;;;;;1.40;1.08;;;17.40;96.00;;;;;;5103834;27;20120;-79
2021/06/02 02:52:44;;;;;;;2.63;1.23;;;17.50;95.80;;;;;;5099428;27;20055;-79
2021/06/02 02:55:19;;;;;;;1.73;0.80;;;17.60;95.60;;;;;;5095787;27;20047;-78
2021/06/02 02:57:56;;;;;;;1.40;0.90;;;17.60;95.70;;;;;;5098810;27;20035;-79
2021/06/02 03:00:36;;;;;;;1.83;1.20;;;17.60;95.70;;;;;;5107116;27;20074;-79
2021/06/02 03:03:19;;;;;;;1.95;1.25;;;17.40;96.10;;;;;;5079017;28;20043;-79
2021/06/02 03:06:04;;;;;;;2.42;1.20;;;17.40;96.10;;;;;;5114931;27;20054;-79
2021/06/02 03:08:41;;;;;;;2.65;1.15;;;17.20;96.70;;;;;;5099827;27;20067;-79
2021/06/02 03:11:14;;;;;;;3.40;1.52;;;17.40;96.50;;;;;;5097198;28;20035;-79
2021/06/02 03:13:48;;;;;;;1.73;1.00;;;17.30;96.40;;;;;;5097426;27;20043;-79
2021/06/02 03:16:23;;;;;;;1.40;1.02;;;17.30;96.70;;;;;;5096077;28;20415;-79
2021/06/02 03:19:03;;;;;;;2.00;1.17;;;17.20;96.70;;;;;;5128641;27;20055;-80
2021/06/02 03:21:55;;;;;;;1.10;1.00;;;17.20;96.70;;;;;;5096051;28;20298;-79
2021/06/02 03:24:55;;;;;;;1.70;1.10;;;17.30;96.70;;;;;;5096266;28;20036;-79
2021/06/02 03:27:31;;;;;;;4.55;1.52;;;17.40;96.70;;;;;;5096346;28;20093;-79
2021/06/02 03:30:07;;;;;;;1.85;1.38;;;17.30;96.70;;;;;;5097818;28;20471;-79
2021/06/02 03:32:51;;;;;;;2.33;1.20;;;17.00;96.70;;;;;;5101823;28;20507;-79
2021/06/02 03:35:29;;;;;;;2.10;1.33;;;16.80;96.70;;;;;;5093836;28;20047;-79
2021/06/02 03:38:03;;;;;;;2.35;1.23;;;16.80;96.70;;;;;;5097599;28;20046;-79
2021/06/02 03:40:43;;;;;;;2.95;1.40;;;16.70;96.70;;;;;;5097153;28;20043;-79
2021/06/02 03:43:17;;;;;;;2.22;1.30;;;16.80;96.70;;;;;;5099765;28;20040;-79
2021/06/02 03:46:08;;;;;;;2.17;1.13;;;16.80;96.70;;;;;;5113368;27;20054;-79
2021/06/02 03:48:54;;;;;;;3.08;1.40;;;16.90;96.70;;;;;;5097271;28;20047;-79
2021/06/02 03:51:37;;;;;;;4.40;1.10;;;17.00;96.70;;;;;;5100294;28;20043;-79
2021/06/02 03:54:14;;;;;;;4.18;1.85;;;17.00;96.70;;;;;;5093683;28;20043;-79
2021/06/02 03:57:12;;;;;;;2.38;1.35;;;17.00;96.70;;;;;;5094729;28;20385;-78
2021/06/02 03:59:43;;;;;;;1.60;1.38;;;17.10;96.70;;;;;;5095618;28;20048;-78
2021/06/02 04:02:33;;;;;;;2.55;1.30;;;17.10;96.70;;;;;;5100978;28;20050;-78
2021/06/02 04:05:15;;;;;;;3.25;1.35;;;17.10;96.70;;;;;;5098475;28;20047;-78
2021/06/02 04:07:52;;;;;;;3.60;1.67;;;17.30;96.70;;;;;;5114047;28;20043;-78
2021/06/02 04:10:35;;;;;;;2.10;1.60;;;17.20;96.70;;;;;;5098513;28;20414;-78
2021/06/02 04:13:11;;;;;;;1.88;1.50;;;17.00;96.70;;;;;;5081129;28;20040;-78
2021/06/02 04:15:47;;;;;;;3.90;1.50;;;17.20;96.70;;;;;;5094096;28;20052;-78
2021/06/02 04:18:18;;;;;;;2.85;1.63;;;17.20;96.70;;;;;;5112173;28;20032;-78
2021/06/02 04:20:47;;;;;;;5.80;1.75;;;17.10;96.70;;;;;;5077708;28;20044;-78
2021/06/02 04:23:20;;;;;;;7.25;2.20;;;17.20;96.70;;;;;;5079315;28;20039;-78
2021/06/02 04:25:51;;;;;;;3.55;2.03;;;17.00;96.70;;;;;;5099088;28;20063;-78
2021/06/02 04:28:19;;;;;;;4.68;2.47;;;17.00;96.70;;;;;;5099244;28;20050;-78
2021/06/02 04:30:49;;;;;;;4.53;2.88;;;17.00;96.70;;;;;;5096744;28;20136;-78
2021/06/02 04:33:18;;;;;;;4.60;3.20;;;16.90;96.70;;;;;;5098791;27;20042;-78
2021/06/02 04:35:51;;;;;;;4.35;2.20;;;17.00;96.70;;;;;;5086043;28;20121;-78
2021/06/02 04:38:21;;;;;;;4.40;2.28;;;17.20;96.70;;;;;;5101961;27;20055;-78
2021/06/02 04:40:51;;;;;;;2.88;2.15;;;17.50;96.70;;;;;;5098961;27;20046;-78
2021/06/02 04:43:20;;;;;;;7.45;2.40;;;17.50;96.70;;;;;;5085732;28;20051;-78
2021/06/02 04:45:56;;;;;;;3.38;2.20;;;17.50;96.70;;;;;;5103355;27;20084;-78
2021/06/02 04:48:25;;;;;;;3.50;2.00;;;17.30;96.70;;;;;;5099927;27;20093;-78
2021/06/02 04:51:06;;;;;;;2.75;1.80;;;17.40;96.70;;;;;;5102334;27;20118;-78
2021/06/02 04:54:14;;;;;;;4.15;1.73;;;17.40;96.70;;;;;;5099546;28;20044;-78
2021/06/02 04:57:28;;;;;;;2.15;1.55;;;17.50;96.70;;;;;;5101686;27;20405;-78
2021/06/02 05:00:33;;;;;;;5.35;1.70;;;17.60;96.70;;;;;;5101199;27;20055;-78
2021/06/02 05:03:47;;;;;;;2.10;1.55;;;17.60;96.70;;;;;;5099137;28;20095;-78
2021/06/02 05:06:48;;;;;;;2.60;1.70;;;17.50;96.70;;;;;;5097615;27;20431;-78
2021/06/02 05:09:51;;;;;;;1.70;1.38;;;17.50;96.70;;;;;;5101204;27;20039;-78
2021/06/02 05:13:04;;;;;;;1.85;1.33;;;17.40;96.70;;;;;;5094353;27;20556;-78
2021/06/02 05:16:11;;;;;;;3.78;1.50;;;17.30;96.70;;;;;;5098759;27;20032;-78
2021/06/02 05:20:15;;;;;;;1.65;1.40;;;17.30;96.70;;;;;;5100881;27;20059;-78
2021/06/02 05:22:47;;;;;;;4.60;1.73;;;17.20;96.70;;;;;;5094872;27;20055;-79
2021/06/02 05:26:08;;;;;;;5.68;1.85;;;17.50;96.70;;;;;;5095615;27;20579;-78
2021/06/02 05:29:15;;;;;;;2.85;1.75;;;17.40;96.70;;;;;;5100387;27;20523;-78
2021/06/02 05:32:12;;;;;;;2.28;1.83;;;17.40;96.70;;;;;;5099072;27;20043;-78
2021/06/02 05:35:15;;;;;;;2.67;1.98;;;17.50;96.70;;;;;;5101788;27;20036;-78
2021/06/02 05:38:42;;;;;;;2.72;2.28;;;17.60;96.70;;;;;;5097389;28;20065;-78
2021/06/02 05:41:33;;;;;;;4.50;2.60;;;17.80;96.70;;;;;;5099558;27;20293;-78
2021/06/02 05:44:45;;;;;;;4.88;3.05;;;17.60;96.70;;;;;;5097190;27;20766;-78
2021/06/02 05:47:45;;;;;;;5.25;3.13;;;17.80;96.70;;;;;;5094101;27;20048;-78
2021/06/02 05:50:43;;;;;;;3.20;2.55;;;17.80;96.70;;;;;;5095943;27;20723;-78
2021/06/02 05:53:47;;;;;;;2.92;2.40;;;17.90;96.70;;;;;;5096974;27;20583;-78
2021/06/02 05:56:53;;;;;;;4.97;2.60;;;18.00;96.70;;;;;;5101883;27;20056;-78
2021/06/02 05:59:52;;;;;;;3.33;2.22;;;18.10;96.70;;;;;;5094663;27;20061;-78
2021/06/02 06:02:59;;;;;;;5.80;2.50;;;18.20;96.70;;;;;;5098664;28;20043;-78
2021/06/02 06:05:57;;;;;;;4.05;2.20;;;18.30;96.70;;;;;;5099750;28;20578;-78
2021/06/02 06:08:48;;;;;;;;;;;18.40;96.70;;;;;;5110333;27;20122;-78
2021/06/02 06:12:04;;;;;;;3.63;2.00;;;18.50;96.70;;;;;;5101788;27;19930;-78
2021/06/02 06:15:02;;;;;;;3.67;1.92;;;18.50;96.70;;;;;;5089684;27;20146;-78
2021/06/02 06:18:08;;;;;;;5.50;2.30;;;18.60;96.70;;;;;;5098176;27;20045;-78
2021/06/02 06:21:25;;;;;;;3.53;2.75;;;18.60;96.70;;;;;;5023439;28;20726;-78
2021/06/02 06:23:56;;;;;;;4.07;3.20;;;18.70;96.70;;;;;;5095318;27;20085;-78
2021/06/02 06:26:30;;;;;;;7.32;3.47;;;18.70;96.70;;;;;;5084670;28;20669;-78
2021/06/02 06:29:06;;;;;;;6.85;4.05;;;18.70;96.70;;;;;;5098422;27;20040;-78
2021/06/02 06:31:41;;;;;;;8.07;3.70;;;18.70;96.70;;;;;;5100374;27;20308;-78
2021/06/02 06:34:14;;;;;;;6.78;3.45;;;18.90;96.70;;;;;;5099782;27;20043;-78
2021/06/02 06:36:47;;;;;;;3.40;2.35;;;19.00;96.70;;;;;;5079394;28;20386;-78
2021/06/02 06:39:38;;;;;;;3.00;2.70;;;19.00;96.70;;;;;;5098717;27;20036;-78
2021/06/02 06:42:11;;;;;;;5.82;2.40;;;19.00;96.70;;;;;;5100188;28;20155;-78
2021/06/02 06:44:43;;;;;;;3.75;2.50;;;19.00;96.70;;;;;;5099709;27;20051;-78
2021/06/02 06:47:14;;;;;;;3.80;2.83;;;19.10;96.70;;;;;;5098095;27;20050;-78
2021/06/02 06:49:48;;;;;;;10.50;5.10;;;19.30;96.70;;;;;;5100135;28;20089;-78
2021/06/02 06:52:18;;;;;;;9.25;4.82;;;19.40;96.70;;;;;;5094229;28;20122;-78
2021/06/02 06:54:47;;;;;;;11.15;6.13;;;19.40;96.70;;;;;;5097514;28;20271;-78
2021/06/02 06:57:18;;;;;;;13.18;6.88;;;19.40;96.70;;;;;;5097874;27;20562;-77
2021/06/02 06:59:48;;;;;;;8.73;5.03;;;19.50;96.70;;;;;;5099092;27;20044;-77
2021/06/02 07:02:19;;;;;;;7.20;4.05;;;19.40;96.70;;;;;;5097349;28;20100;-77
2021/06/02 07:04:48;;;;;;;5.75;3.67;;;19.40;96.70;;;;;;5096724;27;20497;-78
2021/06/02 07:07:18;;;;;;;6.30;4.47;;;19.50;96.70;;;;;;5099981;28;20039;-76
2021/06/02 07:09:47;;;;;;;3.70;3.03;;;19.60;96.70;;;;;;5102977;27;20130;-75
2021/06/02 07:12:20;;;;;;;4.60;3.08;;;19.70;96.70;;;;;;5097670;27;20039;-75
2021/06/02 07:14:50;;;;;;;4.47;2.90;;;19.70;96.70;;;;;;5080313;27;20506;-74
2021/06/02 07:17:22;;;;;;;4.43;3.63;;;19.80;96.70;;;;;;5097909;27;20158;-75
2021/06/02 07:19:57;;;;;;;4.80;3.22;;;19.90;96.70;;;;;;5099807;28;20032;-74
2021/06/02 07:22:28;;;;;;;5.97;2.88;;;20.00;96.70;;;;;;5117132;27;20362;-78
2021/06/02 07:24:58;;;;;;;4.97;3.35;;;20.20;96.70;;;;;;5094427;28;20135;-78
2021/06/02 07:27:28;;;;;;;6.25;3.80;;;20.30;96.40;;;;;;5097539;28;20049;-76
2021/06/02 07:29:56;;;;;;;4.60;3.30;;;20.40;96.20;;;;;;5092964;27;20161;-77
2021/06/02 07:32:27;;;;;;;6.63;3.47;;;20.40;95.80;;;;;;5096728;28;20650;-77
2021/06/02 07:34:55;;;;;;;4.20;3.72;;;20.40;95.40;;;;;;5098833;28;20032;-77
2021/06/02 07:37:23;;;;;;;5.50;3.10;;;20.70;95.50;;;;;;5101554;28;20969;-79
2021/06/02 07:39:53;;;;;;;5.63;3.40;;;20.80;95.10;;;;;;5094548;28;20040;-81
2021/06/02 07:42:22;;;;;;;11.27;3.30;;;21.00;94.40;;;;;;5095408;28;20585;-79
2021/06/02 07:44:51;;;;;;;4.40;3.45;;;21.10;93.70;;;;;;5097967;28;20101;-78
2021/06/02 07:47:19;;;;;;;8.70;3.35;;;21.20;93.60;;;;;;5099218;28;20036;-81
2021/06/02 07:49:58;;;;;;;5.50;3.05;;;21.30;92.60;;;;;;5100626;27;20047;-81
2021/06/02 07:52:27;;;;;;;5.00;2.88;;;21.30;91.90;;;;;;5102768;28;20067;-82
2021/06/02 07:54:56;;;;;;;4.28;2.90;;;21.40;92.90;;;;;;5092275;28;20054;-82
2021/06/02 07:57:25;;;;;;;5.70;2.83;;;21.60;92.40;;;;;;5082132;28;20158;-83
2021/06/02 07:59:54;;;;;;;4.28;3.00;;;21.60;91.30;;;;;;5095981;28;20322;-83
2021/06/02 08:02:22;;;;;;;4.30;2.95;;;21.80;91.80;;;;;;5094694;28;20043;-83
2021/06/02 08:04:51;;;;;;;4.95;2.88;;;21.90;91.40;;;;;;5096007;28;20044;-84
2021/06/02 08:07:21;;;;;;;5.40;2.80;;;21.90;91.20;;;;;;5089844;27;20040;-82
2021/06/02 08:09:50;;;;;;;6.65;2.85;;;21.80;91.40;;;;;;5088740;27;20047;-83
2021/06/02 08:12:19;;;;;;;3.15;2.45;;;21.90;91.80;;;;;;5086049;28;20053;-82
2021/06/02 08:14:48;;;;;;;3.72;2.45;;;21.90;91.40;;;;;;5085644;28;20055;-83
2021/06/02 08:17:17;;;;;;;4.22;2.10;;;22.00;90.80;;;;;;5090400;28;20054;-82
2021/06/02 08:19:45;;;;;;;3.17;1.95;;;22.20;90.20;;;;;;5104807;27;20128;-82
2021/06/02 08:22:14;;;;;;;3.25;1.98;;;22.30;90.40;;;;;;5101364;27;20096;-82
2021/06/02 08:24:44;;;;;;;3.50;1.90;;;22.40;89.40;;;;;;5115589;27;20047;-83
2021/06/02 08:27:13;;;;;;;3.25;1.98;;;22.50;90.10;;;;;;5083484;28;20047;-83
2021/06/02 08:29:42;;;;;;;10.73;7.03;;;22.60;89.00;;;;;;5110801;27;20560;-82
2021/06/02 08:32:11;;;;;;;3.83;2.17;;;22.70;88.40;;;;;;5100612;28;20036;-83
2021/06/02 08:34:40;;;;;;;7.28;1.80;;;22.80;87.40;;;;;;5100028;27;20051;-83
2021/06/02 08:37:10;;;;;;;2.42;1.30;;;23.00;86.40;;;;;;5101424;27;20039;-83
2021/06/02 08:39:38;;;;;;;3.33;1.60;;;23.00;85.90;;;;;;5106886;27;20047;-83
2021/06/02 08:42:17;;;;;;;3.75;1.70;;;23.10;84.90;;;;;;5101727;27;20048;-82
2021/06/02 08:44:46;;;;;;;5.10;1.80;;;23.10;84.00;;;;;;5104779;27;20649;-83
2021/06/02 08:47:14;;;;;;;3.25;1.73;;;23.30;84.70;;;;;;5086258;27;20074;-82
2021/06/02 08:49:43;;;;;;;3.00;1.50;;;23.40;83.80;;;;;;5104995;27;20062;-82
2021/06/02 08:52:12;;;;;;;2.35;1.60;;;23.60;82.60;;;;;;5103817;27;20494;-82
2021/06/02 08:54:40;;;;;;;3.55;1.88;;;23.50;83.00;;;;;;5097410;28;20055;-82
2021/06/02 08:57:10;;;;;;;1.77;1.35;;;23.70;82.20;;;;;;5117145;27;20401;-83
2021/06/02 08:59:40;;;;;;;2.17;1.35;;;23.80;81.10;;;;;;5101451;27;20044;-83
2021/06/02 09:02:09;;;;;;;5.90;2.00;;;24.00;80.50;;;;;;5102061;27;20547;-82
2021/06/02 09:04:38;;;;;;;2.42;1.65;;;24.00;81.40;;;;;;5098619;28;20047;-83
2021/06/02 09:07:07;;;;;;;2.83;1.40;;;24.00;81.30;;;;;;5102757;27;20097;-82
2021/06/02 09:09:36;;;;;;;2.35;1.42;;;24.00;80.30;;;;;;5104086;27;20047;-82
2021/06/02 09:12:12;;;;;;;5.63;1.42;;;24.10;80.10;;;;;;5101028;27;20036;-82
2021/06/02 09:14:43;;;;;;;;;;;24.20;79.60;;;;;;5104857;27;20042;-82
2021/06/02 09:17:14;;;;;;;3.35;2.00;;;24.20;80.90;;;;;;5098196;28;20341;-82
2021/06/02 09:19:44;;;;;;;2.45;2.15;;;24.20;82.00;;;;;;5095717;27;20558;-82
2021/06/02 09:22:14;;;;;;;2.45;1.75;;;24.30;81.10;;;;;;5103386;27;20070;-83
2021/06/02 09:24:47;;;;;;;2.70;2.00;;;24.30;80.40;;;;;;5097425;27;20573;-83
2021/06/02 09:27:17;;;;;;;4.05;1.90;;;24.20;81.20;;;;;;5101200;27;20031;-82
2021/06/02 09:29:55;;;;;;;3.05;1.60;;;24.10;79.40;;;;;;5082784;28;20448;-83
2021/06/02 09:32:25;;;;;;;2.45;1.50;;;24.10;79.70;;;;;;5096840;27;20605;-82
2021/06/02 09:35:00;;;;;;;3.13;1.50;;;24.10;78.60;;;;;;5099903;27;20754;-82
2021/06/02 09:37:30;;;;;;;2.67;1.80;;;24.10;77.70;;;;;;5101227;27;20072;-82
2021/06/02 09:39:59;;;;;;;3.92;1.65;;;24.00;78.00;;;;;;5099476;27;20044;-83
2021/06/02 09:42:28;;;;;;;2.45;2.00;;;24.10;78.00;;;;;;5098425;27;20291;-82
2021/06/02 09:45:04;;;;;;;2.17;1.60;;;24.30;77.00;;;;;;5100712;27;20039;-83
2021/06/02 09:47:44;;;;;;;1.50;1.40;;;24.40;77.20;;;;;;5097647;27;20067;-83
2021/06/02 09:50:14;;;;;;;3.20;1.48;;;24.30;76.70;;;;;;5078469;28;20042;-83
2021/06/02 09:52:46;;;;;;;4.75;1.77;;;24.30;76.40;;;;;;5099364;27;20478;-83
2021/06/02 09:55:19;;;;;;;2.38;1.45;;;24.50;76.80;;;;;;5099331;28;20075;-83
2021/06/02 09:57:54;;;;;;;3.13;1.20;;;24.80;75.40;;;;;;5099387;28;20849;-83
2021/06/02 10:00:39;;;;;;;2.85;1.17;;;24.80;75.30;;;;;;5099611;27;20042;-83
2021/06/02 10:03:10;;;;;;;3.72;1.67;;;24.80;75.70;;;;;;5097899;27;20047;-83
2021/06/02 10:05:40;;;;;;;5.13;2.60;;;24.90;75.20;;;;;;5081144;27;20039;-83
2021/06/02 10:08:11;;;;;;;2.95;1.52;;;25.00;74.50;;;;;;5101751;27;20645;-83
2021/06/02 10:10:41;;;;;;;1.67;1.42;;;25.00;73.10;;;;;;5100678;28;20048;-83
2021/06/02 10:13:10;;;;;;;1.73;1.10;;;25.00;73.80;;;;;;5083126;28;20044;-83
2021/06/02 10:15:42;;;;;;;2.05;1.33;;;25.10;72.90;;;;;;5083284;28;20048;-83
2021/06/02 10:18:25;;;;;;;2.88;1.30;;;25.30;73.00;;;;;;5099625;28;20032;-83
2021/06/02 10:20:58;;;;;;;2.85;1.42;;;25.40;73.30;;;;;;5097187;27;20124;-82
2021/06/02 10:23:27;;;;;;;1.98;1.58;;;25.40;73.80;;;;;;5083678;28;20054;-83
2021/06/02 10:26:01;;;;;;;2.75;1.60;;;25.50;73.60;;;;;;5086323;28;20047;-83
2021/06/02 10:28:32;;;;;;;2.65;1.65;;;25.60;73.90;;;;;;5089460;28;20054;-83
2021/06/02 10:31:04;;;;;;;2.97;1.45;;;25.50;73.00;;;;;;5102296;27;20039;-83
2021/06/02 10:33:33;;;;;;;3.13;1.60;;;25.50;73.20;;;;;;5098003;27;20043;-83
2021/06/02 10:36:04;;;;;;;3.60;1.73;;;25.50;73.80;;;;;;5085431;28;20131;-83
2021/06/02 10:38:43;;;;;;;4.93;2.00;;;25.80;73.90;;;;;;5098131;27;20085;-83
2021/06/02 10:41:16;;;;;;;2.60;1.00;;;25.90;72.60;;;;;;5095612;27;20055;-82
2021/06/02 10:43:50;;;;;;;2.30;1.42;;;25.70;71.70;;;;;;5099797;28;20054;-81
2021/06/02 10:46:23;;;;;;;1.92;1.45;;;25.60;71.40;;;;;;5081502;28;20039;-81
2021/06/02 10:48:54;;;;;;;2.10;1.52;;;25.70;72.40;;;;;;5097781;27;20505;-81
2021/06/02 10:51:39;;;;;;;1.88;1.30;;;25.50;72.00;;;;;;5100849;27;20044;-81
2021/06/02 10:54:09;;;;;;;4.07;1.65;;;25.60;72.10;;;;;;5103372;27;20127;-81
2021/06/02 10:56:39;;;;;;;2.85;1.20;;;25.60;71.90;;;;;;5116497;27;20410;-81
2021/06/02 10:59:26;;;;;;;1.90;1.00;;;25.60;71.80;;;;;;5099286;28;20135;-81
2021/06/02 11:02:07;;;;;;;8.07;1.55;;;25.70;72.20;;;;;;5098525;27;20070;-81
2021/06/02 11:04:37;;;;;;;1.63;1.33;;;25.80;72.90;;;;;;5111493;27;20112;-81
2021/06/02 11:07:25;;;;;;;3.45;1.20;;;26.10;72.50;;;;;;5095242;28;20089;-81
2021/06/02 11:10:00;;;;;;;1.70;1.23;;;26.00;71.60;;;;;;5100132;27;20500;-81
2021/06/02 11:13:03;;;;;;;2.33;1.10;;;26.00;72.90;;;;;;5097730;28;20040;-81
2021/06/02 11:15:45;;;;;;;2.65;1.40;;;25.90;72.40;;;;;;5100351;28;20532;-82
2021/06/02 11:18:22;;;;;;;3.25;1.10;;;26.00;72.90;;;;;;5099097;27;20524;-82
2021/06/02 11:20:52;;;;;;;2.03;1.33;;;25.90;73.20;;;;;;5094339;27;20040;-82
2021/06/02 11:23:22;;;;;;;2.38;1.30;;;25.90;72.80;;;;;;5097241;28;20040;-82
2021/06/02 11:25:51;;;;;;;2.22;1.40;;;25.80;72.20;;;;;;5099433;27;20042;-81
2021/06/02 11:28:42;;;;;;;2.33;1.33;;;25.80;72.30;;;;;;5099775;28;20040;-81
2021/06/02 11:31:23;;;;;;;1.83;1.38;;;26.10;73.20;;;;;;5097692;28;20120;-81
2021/06/02 11:34:26;;;;;;;2.42;1.30;;;26.10;71.70;;;;;;5096827;28;20463;-81
2021/06/02 11:36:59;;;;;;;3.55;1.50;;;26.30;72.10;;;;;;5096692;28;20040;-81
2021/06/02 11:39:27;;;;;;;4.30;1.60;;;26.50;72.20;;;;;;5097161;28;20047;-81
2021/06/02 11:41:58;;;;;;;4.78;2.03;;;26.40;71.50;;;;;;5089377;27;20093;-81
2021/06/02 11:44:27;;;;;;;1.63;1.52;;;26.50;71.60;;;;;;5096808;28;20679;-81
2021/06/02 11:46:55;;;;;;;6.03;4.38;;;26.70;71.40;;;;;;5102912;27;20043;-81
2021/06/02 11:49:27;;;;;;;2.40;1.73;;;26.80;71.50;;;;;;5104423;27;20060;-81
2021/06/02 11:52:04;;;;;;;2.25;1.95;;;26.80;70.80;;;;;;5105129;27;20499;-81
2021/06/02 11:54:46;;;;;;;5.97;3.38;;;26.70;70.80;;;;;;5108237;27;20387;-81
2021/06/02 11:57:22;;;;;;;4.47;1.70;;;26.60;71.60;;;;;;5101487;28;20502;-81
2021/06/02 11:59:51;;;;;;;3.03;1.38;;;26.60;71.10;;;;;;5102247;27;20058;-82
2021/06/02 12:02:19;;;;;;;2.10;1.40;;;26.70;70.40;;;;;;5101443;28;20032;-81
2021/06/02 12:04:49;;;;;;;3.47;1.20;;;26.70;70.60;;;;;;5101266;27;20055;-81
2021/06/02 12:07:22;;;;;;;1.98;1.35;;;26.70;69.70;;;;;;5105125;27;20126;-81
2021/06/02 12:09:52;;;;;;;2.97;1.30;;;26.80;70.00;;;;;;5115060;27;20046;-81
2021/06/02 12:12:22;;;;;;;1.58;1.27;;;26.90;69.60;;;;;;5104160;28;20036;-81
2021/06/02 12:14:52;;;;;;;2.03;1.50;;;27.00;70.30;;;;;;5101353;27;20070;-81
2021/06/02 12:17:26;;;;;;;1.92;1.52;;;27.10;70.60;;;;;;5102447;27;20394;-82
2021/06/02 12:19:57;;;;;;;2.50;1.15;;;27.10;69.10;;;;;;5096786;27;20036;-83
2021/06/02 12:22:27;;;;;;;3.05;1.17;;;27.20;69.70;;;;;;5099422;27;20431;-82
2021/06/02 12:25:12;;;;;;;1.95;1.10;;;27.10;69.20;;;;;;5082409;28;20122;-81
2021/06/02 12:27:42;;;;;;;2.10;1.10;;;27.20;69.20;;;;;;5087048;28;20051;-82
2021/06/02 12:30:14;;;;;;;2.53;1.27;;;27.30;67.80;;;;;;5101855;27;20044;-81
2021/06/02 12:32:50;;;;;;;1.10;0.80;;;27.40;67.20;;;;;;5098360;27;20075;-82
2021/06/02 12:35:30;;;;;;;;;;;27.30;66.40;;;;;;5118812;27;20480;-81
2021/06/02 12:38:13;;;;;;;1.45;0.90;;;27.40;67.60;;;;;;5104717;27;19923;-81
2021/06/02 12:40:45;;;;;;;2.10;1.00;;;27.50;66.60;;;;;;5104864;27;20043;-81
2021/06/02 12:43:15;;;;;;;1.80;0.85;;;27.80;66.90;;;;;;5101566;27;20082;-81
2021/06/02 12:45:46;;;;;;;1.40;0.88;;;27.70;66.50;;;;;;5102155;27;20057;-81
2021/06/02 12:48:18;;;;;;;1.33;1.00;;;27.60;65.50;;;;;;5095437;28;20698;-81
2021/06/02 12:50:49;;;;;;;1.98;0.98;;;27.60;65.70;;;;;;5083815;28;20557;-81
2021/06/02 12:53:18;;;;;;;1.20;0.95;;;27.60;66.70;;;;;;5099842;27;20793;-81
2021/06/02 12:55:48;;;;;;;1.10;0.80;;;27.60;66.90;;;;;;5088052;28;20048;-81
2021/06/02 12:58:18;;;;;;;2.15;0.88;;;27.70;66.30;;;;;;5097674;27;20063;-81
2021/06/02 13:00:48;;;;;;;9.27;0.98;;;27.80;65.90;;;;;;5105578;27;20493;-81
2021/06/02 13:03:20;;;;;;;1.75;0.70;;;28.00;66.30;;;;;;5100843;27;20042;-82
2021/06/02 13:05:50;;;;;;;1.73;0.85;;;28.00;66.20;;;;;;5100343;27;20138;-81
2021/06/02 13:08:19;;;;;;;2.17;1.10;;;28.00;65.60;;;;;;5102048;27;20058;-81
2021/06/02 13:10:47;;;;;;;1.67;0.80;;;28.30;65.80;;;;;;5086949;28;20143;-82
2021/06/02 13:13:17;;;;;;;2.47;0.90;;;28.40;65.60;;;;;;5104772;27;20103;-82
2021/06/02 13:15:54;;;;;;;2.03;0.70;;;28.70;65.40;;;;;;5101399;27;20108;-82
2021/06/02 13:18:24;;;;;;;2.53;0.90;;;28.80;64.70;;;;;;5086653;28;20098;-82
2021/06/02 13:20:54;;;;;;;3.10;0.80;;;28.80;63.90;;;;;;5098100;27;20496;-82
2021/06/02 13:23:24;;;;;;;1.95;0.88;;;28.70;65.10;;;;;;5110420;27;20528;-81
2021/06/02 13:26:00;;;;;;;2.17;0.65;;;28.80;64.00;;;;;;5099495;27;20047;-82
2021/06/02 13:28:31;;;;;;;1.65;0.88;;;29.00;63.60;;;;;;5098432;27;20129;-82
2021/06/02 13:31:00;;;;;;;4.13;0.70;;;29.10;64.50;;;;;;5084709;27;20116;-82
2021/06/02 13:33:38;;;;;;;2.22;1.00;;;29.10;64.30;;;;;;5100282;27;20070;-81
2021/06/02 13:36:10;;;;;;;1.35;0.60;;;29.00;63.50;;;;;;5094969;27;20123;-81
2021/06/02 13:38:39;;;;;;;1.52;0.82;;;29.10;64.30;;;;;;5102899;27;20082;-81
2021/06/02 13:41:19;;;;;;;1.35;0.90;;;29.10;63.70;;;;;;5097183;27;20067;-81